Share

Stavropol', Russia

Shpakovskoye (URMT) Elev 1483 ft | 45.12 °N, 42.08 °E | Change Station

Current weather conditions updated 9 minutes ago

Clear
Clear
55 °F
Feels Like 55 °F
N
11
Wind Variable Wind from East
Sunrise 6:22 AM
Sunset 8:00 PM
Moon Waning Gibbous

Tomorrow is forecast to be Warmer than today.

Pressure 29.92 in
Visibility -9999.0 miles
Clouds
Dew Point 43 °F
Humidity 63%
Rainfall 0.00 in
Snow Depth Not available.
UV Not available.
Pollen Not available.
Air Quality Not available.
Flu Activity Not available.
METAR URMT 181730Z 10005MPS CAVOK 13/06 Q1013 NOSIG RMK QFE720 SC07

More Conditions Fewer Conditions

Pressure 29.92 in
Visibility -9999.0 miles
Clouds
Dew Point 43 °F
Humidity 63%
Rainfall 0.00 in
Snow Depth Not available.
UV Not available.
Pollen Not available.
Air Quality Not available.
Flu Activity Not available.
METAR URMT 181730Z 10005MPS CAVOK 13/06 Q1013 NOSIG RMK QFE720 SC07

More Conditions Fewer Conditions

10-Day Weather Forecast

Almanac

Astronomy

Apr. 18, 2014 Rise Set
Actual Time 6:22 AM MSK 8:00 PM MSK
Civil Twilight 5:51 AM MSK 8:31 PM MSK
Nautical Twilight 5:13 AM MSK 9:09 PM MSK
Astronomical Twilight 4:33 AM MSK 9:50 PM MSK
Moon 11:30 PM MSK 8:19 AM MSK
Length of Visible Light 14h 40m
Length of Day
13h 38m
Tomorrow will be 2m 59s longer.
Waning Gibbous, 87% of the Moon is Illuminated
Today
Waning Gibbous
Apr 22
Last Quarter
Apr 29
New
May 6
First Quarter
May 14
Full

Today's Extremes

Country Highs Country Lows

Community

  • What's for Lunch?
    What's for Lunch?
  • SUNRISE THROUGH THE TREES.
    SUNRISE THROUGH THE TREES.
  • Dog Wood Blossoms
    Dog Wood Blossoms
  • Morning Light
    Morning Light
  • New Day
    New Day

WunderPhotos

Upload Photos

1,702,430 photos uploaded!

Nearby

Snow Depth

Not available.

Coastal Water Temperatures

Place Temperature
No Stations Reporting

Earthquake Activity

City Distance Mag. Time & Date
No recent earthquake activity has been reported nearby.
Minimum magnitude displayed is 2.5.

Nearby Weather Stations

Station Location Temp. Dew Point Humidity Wind Precip. Elev Updated Type
South district, Ставрополь 58.6 °F 38 °F 47% East  at  8.5 mph 0.00 in / hr 2087 ft 9:35 PM MSK Normal

Show More Stations Show Fewer Stations

What do you think?

We're not finished. Please let us know what you like, what you don't like, and what you are still missing.